Terminal Aerodrome Forecast
Issued by NWS Dallas/Fort Worth, TX

Home | Current Version | Previous Version | Text Only | Print | Product List | Glossary On
Versions: 1 2 3 4 5 6 7 8 9 10 11 12 13 14 15 16 17 18 19 20 21 22 23 24 25 26 27 28 29 30 31
317
FTUS44 KFWD 012321
TAFACT
TAF
KACT 012321Z 0200/0224 02014KT P6SM SCT060
     FM020200 36013KT P6SM VCSH BKN040
     FM021200 01009KT P6SM BKN100=

USA.gov is the U.S. government's official web portal to all federal, state and local government web resources and services.